Time;durP1;ratioP1;P1;durP2;ratioP2;P2;SDS_P1;SDS_P2;PMS_P1;PMS_P2;Temp;Humidity;BMP_temperature;BMP_pressure;BME280_temperature;BME280_humidity;BME280_pressure;Samples;Min_cycle;Max_cycle;Signal;HPM_P1;HPM_P2
2022/11/28 00:01:55;;;;;;;38.70;10.63;;;7.40;99.90;;;;;;5051351;28;20529;-92
2022/11/28 00:04:21;;;;;;;51.25;10.77;;;7.30;99.90;;;;;;5051214;28;20123;-91
2022/11/28 00:06:50;;;;;;;38.60;9.43;;;7.30;99.90;;;;;;5050547;28;20029;-92
2022/11/28 00:09:19;;;;;;;45.17;10.30;;;7.30;99.90;;;;;;5050890;28;20028;-93
2022/11/28 00:11:46;;;;;;;52.03;12.73;;;7.30;99.90;;;;;;5050723;28;20021;-93
2022/11/28 00:14:12;;;;;;;36.83;9.07;;;7.30;99.90;;;;;;5050717;28;20029;-93
2022/11/28 00:16:38;;;;;;;29.15;7.22;;;7.30;99.90;;;;;;5051222;28;20040;-92
2022/11/28 00:19:05;;;;;;;52.28;10.40;;;7.30;99.90;;;;;;5051418;28;20025;-91
2022/11/28 00:21:31;;;;;;;41.05;10.38;;;7.30;99.90;;;;;;5051371;28;20102;-92
2022/11/28 00:23:58;;;;;;;46.30;10.95;;;7.30;99.90;;;;;;5050469;28;20032;-92
2022/11/28 00:26:38;;;;;;;37.50;10.20;;;7.30;99.90;;;;;;5050920;28;20025;-92
2022/11/28 00:29:05;;;;;;;39.83;10.18;;;7.20;99.90;;;;;;5050468;28;20112;-91
2022/11/28 00:31:34;;;;;;;41.60;10.13;;;7.20;99.90;;;;;;5050784;28;20094;-93
2022/11/28 00:34:01;;;;;;;45.35;10.88;;;7.20;99.90;;;;;;5051107;28;20025;-93
2022/11/28 00:36:28;;;;;;;28.80;7.88;;;7.20;99.90;;;;;;5050704;28;20479;-93
2022/11/28 00:38:53;;;;;;;30.38;7.20;;;7.20;99.90;;;;;;5050676;28;20485;-93
2022/11/28 00:41:27;;;;;;;45.60;9.95;;;7.20;99.90;;;;;;5051126;28;20049;-92
2022/11/28 00:43:53;;;;;;;37.55;10.20;;;7.20;99.90;;;;;;5051348;28;20025;-92
2022/11/28 00:46:20;;;;;;;39.03;10.68;;;7.20;99.90;;;;;;5052459;28;20516;-92
2022/11/28 00:48:46;;;;;;;49.03;9.90;;;7.20;99.90;;;;;;5051113;28;20037;-92
2022/11/28 00:51:14;;;;;;;50.40;11.82;;;7.20;99.90;;;;;;5050952;28;20021;-90
2022/11/28 00:53:45;;;;;;;55.30;12.63;;;7.20;99.90;;;;;;5050793;28;20021;-92
2022/11/28 00:56:13;;;;;;;41.08;9.02;;;7.20;99.90;;;;;;5050684;28;20057;-92
2022/11/28 00:58:40;;;;;;;38.53;10.27;;;7.20;99.90;;;;;;5050775;28;20036;-92
2022/11/28 01:01:11;;;;;;;57.92;11.00;;;7.20;99.90;;;;;;5051609;28;20063;-92
2022/11/28 01:03:37;;;;;;;44.95;12.02;;;7.20;99.90;;;;;;5051926;28;20025;-92
2022/11/28 01:06:04;;;;;;;49.30;10.52;;;7.30;99.90;;;;;;5050314;28;20040;-92
2022/11/28 01:08:29;;;;;;;42.22;10.52;;;7.30;99.90;;;;;;5050353;28;20055;-92
2022/11/28 01:10:55;;;;;;;45.05;11.73;;;7.30;99.90;;;;;;5050323;28;20064;-92
2022/11/28 01:13:21;;;;;;;45.05;11.50;;;7.30;99.90;;;;;;5050511;28;20032;-92
2022/11/28 01:15:46;;;;;;;40.20;10.10;;;7.30;99.90;;;;;;5050771;28;20025;-92
2022/11/28 01:18:12;;;;;;;38.03;9.63;;;7.40;99.90;;;;;;5050636;28;20021;-91
2022/11/28 01:20:38;;;;;;;35.63;9.80;;;7.40;99.90;;;;;;5050722;28;20482;-92
2022/11/28 01:23:03;;;;;;;42.33;9.68;;;7.40;99.90;;;;;;5050930;28;20029;-92
2022/11/28 01:25:29;;;;;;;34.08;10.43;;;7.40;99.90;;;;;;5051936;28;20024;-92
2022/11/28 01:27:55;;;;;;;29.40;9.55;;;7.40;99.90;;;;;;5051048;28;20088;-91
2022/11/28 01:30:20;;;;;;;35.00;9.20;;;7.40;99.90;;;;;;5050560;28;20021;-92
2022/11/28 01:32:46;;;;;;;33.03;8.60;;;7.40;99.90;;;;;;5050642;28;20033;-92
2022/11/28 01:35:11;;;;;;;35.70;9.77;;;7.40;99.90;;;;;;5050606;28;20021;-92
2022/11/28 01:37:37;;;;;;;33.50;9.00;;;7.40;99.90;;;;;;5054137;28;20040;-91
2022/11/28 01:40:04;;;;;;;40.28;10.45;;;7.50;99.90;;;;;;5053856;28;20029;-92
2022/11/28 01:42:29;;;;;;;34.20;9.13;;;7.40;99.90;;;;;;5065221;28;20114;-93
2022/11/28 01:45:17;;;;;;;36.72;9.82;;;7.50;99.90;;;;;;5062566;28;20040;-92
2022/11/28 01:47:43;;;;;;;47.78;10.40;;;7.50;99.90;;;;;;5054545;28;20112;-92
2022/11/28 01:50:11;;;;;;;36.90;8.68;;;7.50;99.90;;;;;;5054295;28;20037;-93
2022/11/28 01:52:41;;;;;;;39.08;9.02;;;7.40;99.90;;;;;;5054281;28;20078;-92
2022/11/28 01:55:11;;;;;;;32.40;9.18;;;7.40;99.90;;;;;;5055039;28;20036;-92
2022/11/28 01:57:38;;;;;;;39.22;9.65;;;7.40;99.90;;;;;;5055491;28;20107;-91
2022/11/28 02:00:10;;;;;;;35.40;8.55;;;7.40;99.90;;;;;;5054922;28;20116;-93
2022/11/28 02:02:57;;;;;;;30.65;8.15;;;7.40;99.90;;;;;;5055621;28;20105;-92
2022/11/28 02:05:23;;;;;;;29.92;8.00;;;7.40;99.90;;;;;;5060669;28;20039;-93
2022/11/28 02:07:50;;;;;;;31.50;8.02;;;7.40;99.90;;;;;;5074505;28;20028;-92
2022/11/28 02:10:22;;;;;;;32.85;7.63;;;7.40;99.90;;;;;;5076291;28;20028;-89
2022/11/28 02:13:23;;;;;;;23.17;7.68;;;7.40;99.90;;;;;;5072343;28;20060;-92
2022/11/28 02:16:23;;;;;;;26.48;6.80;;;7.40;99.90;;;;;;5047777;28;20033;-91
2022/11/28 02:19:11;;;;;;;24.95;7.15;;;7.40;99.90;;;;;;5056130;28;20025;-92
2022/11/28 02:21:37;;;;;;;28.88;6.95;;;7.40;99.90;;;;;;5055774;28;20076;-93
2022/11/28 02:24:33;;;;;;;43.63;7.80;;;7.40;99.90;;;;;;5054043;28;20494;-92
2022/11/28 02:27:27;;;;;;;26.52;8.35;;;7.40;99.90;;;;;;5054924;28;20025;-91
2022/11/28 02:30:01;;;;;;;33.15;8.30;;;7.30;99.90;;;;;;5053990;28;20032;-91
2022/11/28 02:32:42;;;;;;;31.63;7.30;;;7.30;99.90;;;;;;5053911;28;20021;-91
2022/11/28 02:35:13;;;;;;;35.63;8.65;;;7.30;99.90;;;;;;5053428;28;20079;-92
2022/11/28 02:37:55;;;;;;;33.60;7.13;;;7.30;99.90;;;;;;5052787;28;20127;-91
2022/11/28 02:40:37;;;;;;;32.30;9.07;;;7.30;99.90;;;;;;5052428;28;20120;-92
2022/11/28 02:43:20;;;;;;;24.58;6.93;;;7.30;99.90;;;;;;5054075;28;20035;-92
2022/11/28 02:45:54;;;;;;;31.42;9.82;;;7.20;99.90;;;;;;5053137;28;20549;-92
2022/11/28 02:48:54;;;;;;;29.85;8.27;;;7.20;99.90;;;;;;5052853;28;20075;-91
2022/11/28 02:51:35;;;;;;;39.88;10.73;;;7.20;99.90;;;;;;5052674;28;20025;-92
2022/11/28 02:54:01;;;;;;;;;;;7.20;99.90;;;;;;5052848;28;20039;-90
2022/11/28 02:56:27;;;;;;;18.88;6.35;;;7.20;99.90;;;;;;5052486;28;19908;-92
2022/11/28 02:58:53;;;;;;;26.10;7.57;;;7.20;99.90;;;;;;5053513;28;20086;-91
2022/11/28 03:01:26;;;;;;;26.85;7.53;;;7.20;99.90;;;;;;5053155;28;20049;-91
2022/11/28 03:03:54;;;;;;;33.47;8.85;;;7.10;99.90;;;;;;5053299;28;20112;-91
2022/11/28 03:06:39;;;;;;;35.47;8.57;;;7.20;99.90;;;;;;5053502;28;20025;-92
2022/11/28 03:09:28;;;;;;;33.00;8.52;;;7.10;99.90;;;;;;5052509;28;20063;-93
2022/11/28 03:12:13;;;;;;;30.15;7.70;;;7.10;99.90;;;;;;5053245;28;20111;-92
2022/11/28 03:14:56;;;;;;;28.95;7.30;;;7.10;99.90;;;;;;5051980;28;20044;-92
2022/11/28 03:17:39;;;;;;;29.67;7.30;;;7.10;99.90;;;;;;5051900;28;20118;-92
2022/11/28 03:20:05;;;;;;;35.97;8.85;;;7.10;99.90;;;;;;5053362;28;20071;-90
2022/11/28 03:22:47;;;;;;;30.10;7.65;;;7.10;99.90;;;;;;5052088;28;20037;-92
2022/11/28 03:25:53;;;;;;;30.30;6.82;;;7.10;99.90;;;;;;5051851;28;20025;-91
2022/11/28 03:28:48;;;;;;;27.08;6.82;;;7.10;99.90;;;;;;5045241;28;20049;-91
2022/11/28 03:31:30;;;;;;;17.23;5.82;;;7.10;99.90;;;;;;5052068;28;20241;-92
2022/11/28 03:33:58;;;;;;;24.25;7.28;;;7.00;99.90;;;;;;5051980;28;20025;-92
2022/11/28 03:36:44;;;;;;;25.95;7.25;;;7.00;99.90;;;;;;5053102;28;20079;-91
2022/11/28 03:39:16;;;;;;;25.48;7.32;;;7.00;99.90;;;;;;5054062;28;20029;-92
2022/11/28 03:42:06;;;;;;;30.77;6.95;;;7.00;99.90;;;;;;5053621;28;20123;-92
2022/11/28 03:44:45;;;;;;;22.35;6.50;;;7.00;99.90;;;;;;5052572;28;20056;-92
2022/11/28 03:47:10;;;;;;;27.67;6.15;;;7.00;99.90;;;;;;5051670;28;20029;-92
2022/11/28 03:49:44;;;;;;;21.50;6.07;;;7.00;99.90;;;;;;5052076;28;20496;-92
2022/11/28 03:52:37;;;;;;;20.42;6.28;;;7.00;99.90;;;;;;5052416;28;20025;-91
2022/11/28 03:55:12;;;;;;;24.65;6.43;;;7.00;99.90;;;;;;5051669;28;20104;-92
2022/11/28 03:57:43;;;;;;;25.98;6.78;;;7.00;99.90;;;;;;5052481;28;20037;-92
2022/11/28 04:00:14;;;;;;;25.48;6.82;;;7.00;99.90;;;;;;5051611;28;20044;-91
2022/11/28 04:03:08;;;;;;;22.67;6.43;;;7.00;99.90;;;;;;5051602;28;20398;-93
2022/11/28 04:06:03;;;;;;;18.27;6.82;;;7.00;99.90;;;;;;5052975;28;20022;-92
2022/11/28 04:08:31;;;;;;;29.75;7.22;;;7.00;99.90;;;;;;5051679;28;20047;-91
2022/11/28 04:11:32;;;;;;;26.08;8.52;;;7.00;99.90;;;;;;5051311;28;20032;-92
2022/11/28 04:14:11;;;;;;;24.48;6.10;;;7.00;99.90;;;;;;5051461;28;20067;-90
2022/11/28 04:16:53;;;;;;;30.17;6.38;;;7.10;99.90;;;;;;5052195;28;20025;-92
2022/11/28 04:19:29;;;;;;;28.30;6.32;;;7.10;99.90;;;;;;5051350;28;20074;-90
2022/11/28 04:22:08;;;;;;;26.20;6.28;;;7.10;99.90;;;;;;5051972;28;20045;-91
2022/11/28 04:24:46;;;;;;;29.40;7.32;;;7.10;99.90;;;;;;5052223;28;20021;-91
2022/11/28 04:27:22;;;;;;;21.30;5.93;;;7.10;99.90;;;;;;5052311;28;20017;-91
2022/11/28 04:29:55;;;;;;;20.75;6.63;;;7.10;99.90;;;;;;5052272;28;20037;-90
2022/11/28 04:32:23;;;;;;;28.20;7.22;;;7.10;99.90;;;;;;5051525;28;20031;-91
2022/11/28 04:34:54;;;;;;;28.95;7.93;;;7.10;99.90;;;;;;5052077;28;20482;-91
2022/11/28 04:37:23;;;;;;;26.33;7.15;;;7.00;99.90;;;;;;5052846;28;20053;-91
2022/11/28 04:39:51;;;;;;;26.00;6.70;;;7.00;99.90;;;;;;5057399;28;20039;-91
2022/11/28 04:42:29;;;;;;;39.38;10.85;;;7.00;99.90;;;;;;5057818;28;20502;-92
2022/11/28 04:45:10;;;;;;;23.23;8.38;;;7.00;99.90;;;;;;5050613;28;20044;-92
2022/11/28 04:47:36;;;;;;;24.67;7.35;;;7.00;99.90;;;;;;5051138;28;20445;-92
2022/11/28 04:50:02;;;;;;;30.02;10.13;;;7.00;99.90;;;;;;5051255;28;20036;-92
2022/11/28 04:52:42;;;;;;;32.35;8.70;;;7.10;99.90;;;;;;5051988;28;20115;-92
2022/11/28 04:55:23;;;;;;;33.00;11.13;;;7.00;99.90;;;;;;5051304;28;20085;-92
2022/11/28 04:57:53;;;;;;;16.60;7.93;;;7.00;99.90;;;;;;5051039;28;20052;-91
2022/11/28 05:00:21;;;;;;;31.73;9.00;;;7.00;99.90;;;;;;5050856;28;20052;-93
2022/11/28 05:02:50;;;;;;;24.73;8.75;;;7.00;99.90;;;;;;5050081;28;20158;-92
2022/11/28 05:05:24;;;;;;;25.83;8.95;;;7.00;99.90;;;;;;5067886;28;20113;-91
2022/11/28 05:07:51;;;;;;;26.40;8.35;;;7.10;99.90;;;;;;5052815;28;20025;-93
2022/11/28 05:10:17;;;;;;;36.22;9.40;;;7.10;99.90;;;;;;5054214;28;20331;-92
2022/11/28 05:12:43;;;;;;;28.27;8.75;;;7.10;99.90;;;;;;5054502;28;20390;-93
2022/11/28 05:15:10;;;;;;;26.70;8.75;;;7.10;99.90;;;;;;5055595;28;20029;-92
2022/11/28 05:17:37;;;;;;;25.45;9.93;;;7.10;99.90;;;;;;5054539;28;20025;-92
2022/11/28 05:20:04;;;;;;;34.75;10.57;;;7.00;99.90;;;;;;5054514;28;20505;-92
2022/11/28 05:22:29;;;;;;;26.13;8.73;;;7.00;99.90;;;;;;5054309;28;20037;-92
2022/11/28 05:24:55;;;;;;;24.42;8.52;;;7.00;99.90;;;;;;5070991;28;20502;-92
2022/11/28 05:27:21;;;;;;;21.63;7.40;;;7.00;99.90;;;;;;5054458;28;20072;-91
2022/11/28 05:29:46;;;;;;;29.92;9.45;;;7.00;99.90;;;;;;5054017;28;20493;-92
2022/11/28 05:32:13;;;;;;;25.58;8.52;;;7.00;99.90;;;;;;5053763;28;20029;-92
2022/11/28 05:34:38;;;;;;;29.63;7.97;;;7.00;99.90;;;;;;5054737;28;20029;-92
2022/11/28 05:37:05;;;;;;;26.42;7.57;;;7.00;99.90;;;;;;5055566;28;20025;-91
2022/11/28 05:39:31;;;;;;;18.83;6.65;;;7.00;99.90;;;;;;5054102;28;20020;-92
2022/11/28 05:41:57;;;;;;;32.65;8.63;;;7.10;99.90;;;;;;5070861;28;20384;-93
2022/11/28 05:44:23;;;;;;;30.25;8.27;;;7.10;99.90;;;;;;5053988;28;20029;-92
2022/11/28 05:46:48;;;;;;;34.95;9.32;;;7.10;99.90;;;;;;5053423;28;20040;-92
2022/11/28 05:49:14;;;;;;;33.67;8.38;;;7.10;99.90;;;;;;5054108;28;20471;-92
2022/11/28 05:51:40;;;;;;;30.30;8.65;;;7.10;99.90;;;;;;5055556;28;20029;-91
2022/11/28 05:54:06;;;;;;;30.85;8.57;;;7.10;99.90;;;;;;5053638;28;20021;-91
2022/11/28 05:56:32;;;;;;;39.15;10.45;;;7.10;99.90;;;;;;5054087;28;20117;-92
2022/11/28 05:58:57;;;;;;;23.33;7.15;;;7.10;99.90;;;;;;5054458;28;20033;-92
2022/11/28 06:01:25;;;;;;;28.23;8.07;;;7.00;99.90;;;;;;5053378;28;20514;-92
2022/11/28 06:03:56;;;;;;;31.13;8.27;;;7.10;99.90;;;;;;5053868;28;20032;-92
2022/11/28 06:06:23;;;;;;;31.27;8.27;;;7.00;99.90;;;;;;5053689;28;20475;-91
2022/11/28 06:08:52;;;;;;;19.85;7.22;;;7.10;99.90;;;;;;5053832;28;20031;-92
2022/11/28 06:11:20;;;;;;;30.88;8.05;;;7.00;99.90;;;;;;5055062;28;20056;-92
2022/11/28 06:13:47;;;;;;;22.52;7.90;;;7.00;99.90;;;;;;5069673;28;20028;-92
2022/11/28 06:16:16;;;;;;;23.30;7.20;;;7.00;99.90;;;;;;5053089;28;20021;-91
2022/11/28 06:18:42;;;;;;;19.25;7.30;;;7.00;99.90;;;;;;5052884;28;20033;-91
2022/11/28 06:21:09;;;;;;;28.70;8.52;;;7.00;99.90;;;;;;5053302;28;20510;-92
2022/11/28 06:23:35;;;;;;;20.40;6.30;;;7.00;99.90;;;;;;5052940;28;20086;-91
2022/11/28 06:26:06;;;;;;;23.25;6.63;;;6.90;99.90;;;;;;5054383;28;20387;-91
2022/11/28 06:28:32;;;;;;;21.25;8.00;;;6.90;99.90;;;;;;5053882;28;20475;-91
2022/11/28 06:30:59;;;;;;;20.20;6.35;;;6.90;99.90;;;;;;5052755;28;20498;-93
2022/11/28 06:33:24;;;;;;;26.20;8.00;;;6.90;99.90;;;;;;5053489;28;20120;-92
2022/11/28 06:35:50;;;;;;;25.83;6.82;;;6.90;99.90;;;;;;5053141;28;20067;-91
2022/11/28 06:38:15;;;;;;;25.30;8.68;;;6.80;99.90;;;;;;5053303;28;20017;-93
2022/11/28 06:40:41;;;;;;;25.35;7.32;;;6.80;99.90;;;;;;5053920;28;20021;-92
2022/11/28 06:43:07;;;;;;;19.48;7.28;;;6.80;99.90;;;;;;5053786;28;20494;-90
2022/11/28 06:45:33;;;;;;;22.38;7.88;;;6.80;99.90;;;;;;5052176;28;20489;-90
2022/11/28 06:48:00;;;;;;;24.40;7.82;;;6.70;99.90;;;;;;5053170;28;20028;-92
2022/11/28 06:50:26;;;;;;;28.35;7.78;;;6.70;99.90;;;;;;5053060;28;20029;-92
2022/11/28 06:52:53;;;;;;;31.60;7.95;;;6.70;99.90;;;;;;5063660;28;20503;-91
2022/11/28 06:55:19;;;;;;;25.38;8.07;;;6.70;99.90;;;;;;5052265;28;20508;-92
2022/11/28 06:57:45;;;;;;;23.67;7.50;;;6.70;99.90;;;;;;5052129;28;20100;-91
2022/11/28 07:00:11;;;;;;;20.23;6.95;;;6.60;99.90;;;;;;5068442;28;20041;-90
2022/11/28 07:02:37;;;;;;;22.10;6.70;;;6.60;99.90;;;;;;5052443;28;20025;-91
2022/11/28 07:05:02;;;;;;;31.85;7.38;;;6.60;99.90;;;;;;5053307;28;20079;-91
2022/11/28 07:07:28;;;;;;;27.08;7.60;;;6.60;99.90;;;;;;5052617;28;20120;-92
2022/11/28 07:09:54;;;;;;;23.80;7.15;;;6.60;99.90;;;;;;5051918;28;20025;-92
2022/11/28 07:12:20;;;;;;;34.85;8.55;;;6.70;99.90;;;;;;5051379;28;20025;-92
2022/11/28 07:14:45;;;;;;;23.48;6.13;;;6.60;99.90;;;;;;5050993;28;20021;-91
2022/11/28 07:17:11;;;;;;;36.92;7.88;;;6.60;99.90;;;;;;5051892;28;20021;-92
2022/11/28 07:19:37;;;;;;;23.92;7.38;;;6.60;99.90;;;;;;5069011;28;20471;-92
2022/11/28 07:22:02;;;;;;;31.30;8.05;;;6.60;99.90;;;;;;5052441;28;20044;-92
2022/11/28 07:24:29;;;;;;;27.00;9.52;;;6.60;99.90;;;;;;5054589;28;20036;-92
2022/11/28 07:26:55;;;;;;;32.40;9.05;;;6.60;99.90;;;;;;5052662;28;20036;-92
2022/11/28 07:29:21;;;;;;;30.27;8.65;;;6.60;99.90;;;;;;5053527;28;20021;-93
2022/11/28 07:31:47;;;;;;;32.10;9.00;;;6.60;99.90;;;;;;5057511;28;20024;-91
2022/11/28 07:34:13;;;;;;;29.70;8.88;;;6.60;99.90;;;;;;5070025;28;20032;-90
2022/11/28 07:36:38;;;;;;;29.00;10.05;;;6.50;99.90;;;;;;5061270;28;20021;-93
2022/11/28 07:39:07;;;;;;;24.80;8.48;;;6.50;99.90;;;;;;5063258;28;20036;-91
2022/11/28 07:41:33;;;;;;;26.10;9.30;;;6.50;99.90;;;;;;5083474;28;20090;-88
2022/11/28 07:44:01;;;;;;;25.77;7.68;;;6.50;99.90;;;;;;5054426;28;20030;-92
2022/11/28 07:46:28;;;;;;;25.00;9.75;;;6.60;99.90;;;;;;5053812;28;20025;-93
2022/11/28 07:48:54;;;;;;;21.48;9.43;;;6.70;99.90;;;;;;5052981;28;20036;-93
2022/11/28 07:51:26;;;;;;;28.95;9.23;;;6.60;99.90;;;;;;5053496;28;20033;-94
2022/11/28 07:53:52;;;;;;;20.98;9.27;;;6.70;99.90;;;;;;5052960;28;20021;-93
2022/11/28 07:56:21;;;;;;;23.40;8.38;;;6.70;99.90;;;;;;5052758;28;20071;-94
2022/11/28 07:58:47;;;;;;;25.25;8.30;;;6.70;99.90;;;;;;5054188;28;20104;-93
2022/11/28 08:01:17;;;;;;;21.63;8.32;;;6.70;99.90;;;;;;5051981;28;20048;-93
2022/11/28 08:03:44;;;;;;;28.00;8.38;;;6.80;99.90;;;;;;5051896;28;20048;-92
2022/11/28 08:06:11;;;;;;;19.23;7.90;;;6.80;99.90;;;;;;5052222;28;20393;-93
2022/11/28 08:08:37;;;;;;;25.23;8.63;;;6.80;99.90;;;;;;5052990;28;20020;-94
2022/11/28 08:11:05;;;;;;;22.05;7.88;;;6.90;99.90;;;;;;5051283;28;20104;-94
2022/11/28 08:13:31;;;;;;;24.08;8.30;;;6.80;99.90;;;;;;5052224;28;20100;-92
2022/11/28 08:15:57;;;;;;;24.02;7.40;;;6.90;99.90;;;;;;5047585;28;20025;-94
2022/11/28 08:18:23;;;;;;;24.08;7.72;;;6.90;99.90;;;;;;5053450;28;20027;-94
2022/11/28 08:20:49;;;;;;;23.08;7.78;;;6.90;99.90;;;;;;5052198;28;20040;-91
2022/11/28 08:23:15;;;;;;;23.85;8.68;;;6.90;99.90;;;;;;5053464;28;20017;-92
2022/11/28 08:25:40;;;;;;;14.63;6.93;;;7.00;99.90;;;;;;5052952;28;20021;-93
2022/11/28 08:28:07;;;;;;;29.55;7.47;;;7.00;99.90;;;;;;5053153;28;20356;-91
2022/11/28 08:30:32;;;;;;;18.85;8.13;;;7.00;99.90;;;;;;5051740;28;20017;-92
2022/11/28 08:32:58;;;;;;;28.02;8.50;;;7.00;99.90;;;;;;5053192;28;20474;-91
2022/11/28 08:35:24;;;;;;;22.00;7.78;;;7.00;99.90;;;;;;5054972;28;20025;-92
2022/11/28 08:37:49;;;;;;;20.13;7.60;;;7.00;99.90;;;;;;5053928;28;20044;-92
2022/11/28 08:40:15;;;;;;;24.92;7.85;;;7.00;99.90;;;;;;5052182;28;20078;-93
2022/11/28 08:42:41;;;;;;;19.20;7.85;;;7.00;99.90;;;;;;5051833;28;20025;-91
2022/11/28 08:45:09;;;;;;;20.27;7.07;;;7.00;99.90;;;;;;5055517;28;20021;-94
2022/11/28 08:47:34;;;;;;;22.27;7.88;;;7.00;99.90;;;;;;5056362;28;20029;-93
2022/11/28 08:50:00;;;;;;;19.23;8.32;;;7.00;99.90;;;;;;5056702;28;20023;-93
2022/11/28 08:52:26;;;;;;;18.42;6.85;;;7.00;99.90;;;;;;5045359;28;20100;-92
2022/11/28 08:54:52;;;;;;;15.43;7.35;;;7.00;99.90;;;;;;5068012;28;20021;-93
2022/11/28 08:57:17;;;;;;;19.38;7.65;;;7.00;99.90;;;;;;5055427;28;20036;-93
2022/11/28 08:59:43;;;;;;;13.25;7.00;;;7.00;99.90;;;;;;5054490;28;20040;-93
2022/11/28 09:02:11;;;;;;;24.60;7.75;;;7.00;99.90;;;;;;5053489;28;20047;-93
2022/11/28 09:04:37;;;;;;;17.48;7.93;;;7.00;99.90;;;;;;5054898;28;20055;-92
2022/11/28 09:07:03;;;;;;;20.23;7.10;;;7.00;99.90;;;;;;5054524;28;20045;-93
2022/11/28 09:09:29;;;;;;;19.52;6.75;;;7.00;99.90;;;;;;5056173;28;20036;-94
2022/11/28 09:11:54;;;;;;;21.63;7.40;;;7.00;99.90;;;;;;5054498;28;20044;-93
2022/11/28 09:14:20;;;;;;;18.42;7.35;;;7.10;99.90;;;;;;5054875;28;20048;-94
2022/11/28 09:16:46;;;;;;;24.98;7.07;;;7.10;99.90;;;;;;5051359;28;20023;-93
2022/11/28 09:19:12;;;;;;;16.83;6.90;;;7.10;99.90;;;;;;5071918;28;20035;-95
2022/11/28 09:21:40;;;;;;;15.60;6.63;;;7.10;99.90;;;;;;5072347;28;20055;-93
2022/11/28 09:24:07;;;;;;;22.60;7.55;;;7.10;99.90;;;;;;5054214;28;20105;-94
2022/11/28 09:26:32;;;;;;;15.93;6.53;;;7.10;99.90;;;;;;5075357;28;20033;-93
2022/11/28 09:28:59;;;;;;;17.48;6.90;;;7.10;99.90;;;;;;5059310;28;20565;-93
2022/11/28 09:31:24;;;;;;;16.65;6.78;;;7.10;99.90;;;;;;5058734;28;20482;-94
2022/11/28 09:33:50;;;;;;;22.67;6.88;;;7.20;99.90;;;;;;5057918;28;20066;-93
2022/11/28 09:36:19;;;;;;;21.60;5.95;;;7.20;99.90;;;;;;5057339;28;20028;-94
2022/11/28 09:38:45;;;;;;;16.52;7.10;;;7.20;99.90;;;;;;5055804;28;20021;-89
2022/11/28 09:41:39;;;;;;;19.88;6.97;;;7.20;99.90;;;;;;5055061;28;20037;-94
2022/11/28 09:44:13;;;;;;;18.95;6.63;;;7.20;99.90;;;;;;5051880;28;20020;-93
2022/11/28 09:46:40;;;;;;;22.17;7.18;;;7.20;99.90;;;;;;5055034;28;20086;-93
2022/11/28 09:49:21;;;;;;;24.08;7.93;;;7.20;99.90;;;;;;5055155;28;20033;-92
2022/11/28 09:51:51;;;;;;;;;;;7.20;99.90;;;;;;5054031;28;20060;-93
2022/11/28 09:54:21;;;;;;;21.35;6.70;;;7.20;99.90;;;;;;5054213;28;19909;-94
2022/11/28 09:56:49;;;;;;;21.33;6.65;;;7.20;99.90;;;;;;5050449;28;20044;-93
2022/11/28 09:59:27;;;;;;;20.35;6.22;;;7.20;99.90;;;;;;5053863;28;20112;-94
2022/11/28 10:02:35;;;;;;;13.43;6.40;;;7.20;99.90;;;;;;5052571;28;20072;-94
2022/11/28 10:05:08;;;;;;;15.13;5.60;;;7.30;99.90;;;;;;5051534;28;20112;-93
2022/11/28 10:08:02;;;;;;;18.27;7.15;;;7.30;99.90;;;;;;5052399;28;20041;-92
2022/11/28 10:10:55;;;;;;;20.27;6.05;;;7.40;99.90;;;;;;5068625;28;20040;-95
2022/11/28 10:13:21;;;;;;;16.60;6.10;;;7.40;99.90;;;;;;5069578;28;20077;-93
2022/11/28 10:15:58;;;;;;;15.85;5.60;;;7.40;99.90;;;;;;5053321;28;20021;-93
2022/11/28 10:18:30;;;;;;;18.10;6.00;;;7.40;99.90;;;;;;5055597;28;20021;-94
2022/11/28 10:21:01;;;;;;;12.77;5.10;;;7.50;99.90;;;;;;5057488;28;20040;-94
2022/11/28 10:23:39;;;;;;;16.20;4.95;;;7.40;99.90;;;;;;5053219;28;20029;-94
2022/11/28 10:26:30;;;;;;;17.27;6.05;;;7.50;99.90;;;;;;5056204;28;20021;-94
2022/11/28 10:28:58;;;;;;;18.20;5.63;;;7.50;99.90;;;;;;5054103;28;20021;-94
2022/11/28 10:31:41;;;;;;;17.83;5.65;;;7.50;99.90;;;;;;5055564;28;20032;-94
2022/11/28 10:34:13;;;;;;;28.83;6.30;;;7.60;99.90;;;;;;5054178;28;20017;-94
2022/11/28 10:36:55;;;;;;;16.35;5.15;;;7.60;99.90;;;;;;5057871;28;20031;-95
2022/11/28 10:39:24;;;;;;;18.30;5.88;;;7.70;99.90;;;;;;5076521;28;20036;-94
2022/11/28 10:42:14;;;;;;;19.48;5.95;;;7.70;99.90;;;;;;5061590;28;20040;-94
2022/11/28 10:45:07;;;;;;;22.08;6.25;;;7.80;99.90;;;;;;5056727;28;20054;-94
2022/11/28 10:47:50;;;;;;;20.30;6.50;;;7.80;99.90;;;;;;5082632;28;20024;-94
2022/11/28 10:50:32;;;;;;;14.95;5.97;;;7.90;99.90;;;;;;5069363;28;20025;-94
2022/11/28 10:53:19;;;;;;;16.70;5.72;;;7.90;99.90;;;;;;5050484;28;20038;-94
2022/11/28 10:55:55;;;;;;;17.98;5.60;;;7.90;99.90;;;;;;5050432;28;20028;-94
2022/11/28 10:58:26;;;;;;;17.65;5.40;;;7.90;99.90;;;;;;5071001;28;20048;-94
2022/11/28 11:00:52;;;;;;;;;;;8.00;99.90;;;;;;5069732;28;20516;-94
2022/11/28 11:03:20;;;;;;;20.88;6.47;;;8.00;99.90;;;;;;5052736;28;20342;-94
2022/11/28 11:05:46;;;;;;;16.23;6.25;;;8.00;99.90;;;;;;5052673;28;20471;-93
2022/11/28 11:08:22;;;;;;;20.70;7.10;;;8.10;99.90;;;;;;5053625;28;20036;-94
2022/11/28 11:11:37;;;;;;;22.23;6.15;;;8.30;99.90;;;;;;5053399;28;20025;-92
2022/11/28 11:14:09;;;;;;;16.35;5.05;;;8.50;99.90;;;;;;5011854;28;20044;-93
2022/11/28 11:16:47;;;;;;;18.13;5.10;;;8.70;99.90;;;;;;5012819;28;20080;-93
2022/11/28 11:19:29;;;;;;;17.38;5.32;;;8.90;99.90;;;;;;5015778;28;20068;-94
2022/11/28 11:22:05;;;;;;;15.98;5.70;;;9.00;99.90;;;;;;5015445;28;20033;-93
2022/11/28 11:24:32;;;;;;;14.55;5.32;;;9.10;99.90;;;;;;5015397;28;20037;-92
2022/11/28 11:27:19;;;;;;;16.10;5.30;;;9.20;99.90;;;;;;5012784;28;20021;-93
2022/11/28 11:29:45;;;;;;;14.77;5.43;;;9.10;99.90;;;;;;5023820;28;20038;-92
2022/11/28 11:32:22;;;;;;;13.68;4.93;;;9.20;99.90;;;;;;5033637;28;20030;-93
2022/11/28 11:34:49;;;;;;;17.23;5.53;;;9.10;99.90;;;;;;5032295;28;20065;-93
2022/11/28 11:37:33;;;;;;;16.58;5.00;;;9.10;99.90;;;;;;5030394;28;20026;-93
2022/11/28 11:40:00;;;;;;;14.25;4.50;;;9.00;99.90;;;;;;5030435;28;20518;-92
2022/11/28 11:42:29;;;;;;;14.55;4.43;;;9.00;99.90;;;;;;5029970;28;20025;-92
2022/11/28 11:44:55;;;;;;;18.60;4.82;;;9.00;99.90;;;;;;5038075;28;20438;-92
2022/11/28 11:47:41;;;;;;;14.50;4.85;;;8.90;99.90;;;;;;5033900;28;20037;-93
2022/11/28 11:50:22;;;;;;;20.65;4.88;;;8.80;99.90;;;;;;5032666;28;20387;-93
2022/11/28 11:53:06;;;;;;;16.27;4.70;;;8.80;99.90;;;;;;5032588;28;20029;-92
2022/11/28 11:55:42;;;;;;;12.45;4.30;;;8.70;99.90;;;;;;5032946;28;20025;-92
2022/11/28 11:58:13;;;;;;;13.43;5.15;;;8.70;99.90;;;;;;5034046;28;20025;-92
2022/11/28 12:00:39;;;;;;;18.65;4.82;;;8.70;99.90;;;;;;5044864;28;20041;-93
2022/11/28 12:03:32;;;;;;;13.52;4.32;;;8.70;99.90;;;;;;5051919;28;20106;-93
2022/11/28 12:06:13;;;;;;;12.43;4.20;;;8.70;99.90;;;;;;5052106;28;20071;-91
2022/11/28 12:08:53;;;;;;;16.80;5.30;;;8.80;99.90;;;;;;5052520;28;20025;-94
2022/11/28 12:11:52;;;;;;;16.03;4.63;;;8.80;99.90;;;;;;5053761;28;20566;-93
2022/11/28 12:14:31;;;;;;;12.88;4.25;;;8.90;99.90;;;;;;5052488;28;20203;-92
2022/11/28 12:17:35;;;;;;;10.00;3.55;;;9.00;99.90;;;;;;5052855;28;20032;-93
2022/11/28 12:20:25;;;;;;;13.55;4.90;;;8.90;99.90;;;;;;5054209;28;20041;-93
2022/11/28 12:23:20;;;;;;;9.23;3.88;;;8.80;99.90;;;;;;5035867;28;20021;-94
2022/11/28 12:26:01;;;;;;;14.23;4.13;;;8.80;99.90;;;;;;5052471;28;20037;-93
2022/11/28 12:29:07;;;;;;;15.60;4.78;;;8.80;99.90;;;;;;5034938;28;20037;-94
2022/11/28 12:32:20;;;;;;;16.02;5.20;;;8.80;99.90;;;;;;5021574;28;20038;-92
2022/11/28 12:35:05;;;;;;;12.93;4.45;;;8.90;99.90;;;;;;5032053;28;20080;-93
2022/11/28 12:37:44;;;;;;;15.75;3.97;;;9.00;99.90;;;;;;5014452;28;20030;-93
2022/11/28 12:40:45;;;;;;;12.02;4.53;;;9.10;99.90;;;;;;5014902;28;20029;-94
2022/11/28 12:43:16;;;;;;;14.23;3.97;;;9.20;99.90;;;;;;5015226;28;20375;-93
2022/11/28 12:45:58;;;;;;;19.45;4.40;;;9.30;99.90;;;;;;5015096;28;20037;-93
2022/11/28 12:48:26;;;;;;;14.70;4.40;;;9.60;99.90;;;;;;5031227;28;20032;-93
2022/11/28 12:51:10;;;;;;;14.40;4.93;;;9.90;99.90;;;;;;5023393;28;20033;-94
2022/11/28 12:53:54;;;;;;;12.73;4.47;;;10.00;99.90;;;;;;5052060;28;20029;-94
2022/11/28 12:56:28;;;;;;;16.73;4.72;;;10.10;99.90;;;;;;5051964;28;20043;-94
2022/11/28 12:59:25;;;;;;;15.45;4.22;;;10.20;99.90;;;;;;5053719;28;20032;-94
2022/11/28 13:01:50;;;;;;;11.82;4.95;;;10.20;99.90;;;;;;5052226;28;20049;-93
2022/11/28 13:04:25;;;;;;;15.93;4.95;;;10.10;99.90;;;;;;5052794;28;20462;-93
2022/11/28 13:07:05;;;;;;;19.73;4.38;;;10.10;99.90;;;;;;5051652;28;20045;-94
2022/11/28 13:09:42;;;;;;;16.25;4.40;;;10.10;99.90;;;;;;5051718;28;20025;-94
2022/11/28 13:12:11;;;;;;;9.98;4.30;;;10.00;99.90;;;;;;5049408;28;20040;-94
2022/11/28 13:14:52;;;;;;;14.00;3.95;;;10.00;99.90;;;;;;5068105;28;20541;-93